Time;durP1;ratioP1;P1;durP2;ratioP2;P2;SDS_P1;SDS_P2;PMS_P1;PMS_P2;Temp;Humidity;BMP_temperature;BMP_pressure;BME280_temperature;BME280_humidity;BME280_pressure;Samples;Min_cycle;Max_cycle;Signal;HPM_P1;HPM_P2
2022/07/30 00:00:00;;;;;;;9.57;5.90;;;20.30;70.10;;;;;;5028222;28;20025;-68
2022/07/30 00:02:26;;;;;;;9.70;5.68;;;20.30;70.20;;;;;;5021971;28;20363;-68
2022/07/30 00:04:51;;;;;;;9.65;5.80;;;20.20;70.30;;;;;;5025590;28;20030;-68
2022/07/30 00:07:17;;;;;;;12.10;6.57;;;20.20;70.40;;;;;;5025146;28;20103;-68
2022/07/30 00:09:43;;;;;;;12.52;6.13;;;20.20;70.60;;;;;;5015814;28;20037;-68
2022/07/30 00:12:09;;;;;;;9.95;5.70;;;20.10;70.80;;;;;;5019687;28;20108;-68
2022/07/30 00:14:35;;;;;;;11.43;5.88;;;20.10;71.00;;;;;;5022050;28;20032;-68
2022/07/30 00:17:01;;;;;;;12.43;5.90;;;20.10;71.10;;;;;;5016044;28;20505;-68
2022/07/30 00:19:27;;;;;;;11.05;5.93;;;20.10;71.30;;;;;;5021870;28;20424;-68
2022/07/30 00:21:55;;;;;;;10.70;5.97;;;20.00;71.50;;;;;;5027375;28;20045;-68
2022/07/30 00:24:21;;;;;;;13.82;6.40;;;20.10;71.80;;;;;;5023012;28;20061;-68
2022/07/30 00:26:47;;;;;;;9.40;5.63;;;20.00;72.00;;;;;;5023706;28;20080;-68
2022/07/30 00:29:13;;;;;;;10.20;5.57;;;20.00;72.20;;;;;;5029980;28;20033;-68
2022/07/30 00:31:39;;;;;;;10.40;5.97;;;20.00;72.30;;;;;;5028560;28;20107;-68
2022/07/30 00:34:05;;;;;;;12.23;5.13;;;20.00;72.50;;;;;;5031359;28;20036;-68
2022/07/30 00:36:30;;;;;;;10.65;6.28;;;20.00;72.70;;;;;;5022686;28;20026;-68
2022/07/30 00:38:56;;;;;;;14.70;6.00;;;20.00;72.80;;;;;;5024368;28;20052;-68
2022/07/30 00:41:23;;;;;;;11.02;6.07;;;20.00;73.60;;;;;;5023117;28;20477;-68
2022/07/30 00:43:49;;;;;;;13.00;5.75;;;19.90;73.00;;;;;;5031457;28;20029;-68
2022/07/30 00:46:14;;;;;;;9.50;5.97;;;19.90;73.10;;;;;;5009529;28;20031;-68
2022/07/30 00:48:40;;;;;;;12.93;5.95;;;19.90;73.20;;;;;;5013756;28;20036;-68
2022/07/30 00:51:06;;;;;;;10.70;5.88;;;19.90;73.40;;;;;;5000998;28;20036;-68
2022/07/30 00:53:33;;;;;;;9.50;5.35;;;19.90;73.40;;;;;;5029643;28;20403;-68
2022/07/30 00:55:59;;;;;;;10.75;5.38;;;19.90;73.60;;;;;;5028987;28;20021;-68
2022/07/30 00:58:24;;;;;;;11.07;5.57;;;19.80;73.60;;;;;;5033871;28;20053;-68
2022/07/30 01:00:50;;;;;;;9.93;5.55;;;19.80;73.70;;;;;;5017747;28;20076;-68
2022/07/30 01:03:16;;;;;;;10.63;6.07;;;19.80;73.80;;;;;;5025634;28;20028;-68
2022/07/30 01:05:42;;;;;;;9.38;5.25;;;19.80;73.90;;;;;;5025553;28;20030;-68
2022/07/30 01:08:07;;;;;;;11.23;5.10;;;19.70;74.00;;;;;;5003088;28;20030;-68
2022/07/30 01:10:33;;;;;;;8.77;4.85;;;19.70;74.10;;;;;;5019959;28;20464;-68
2022/07/30 01:13:00;;;;;;;9.35;5.07;;;19.80;74.10;;;;;;5030198;28;20101;-68
2022/07/30 01:15:27;;;;;;;10.57;5.13;;;19.70;74.20;;;;;;5027863;28;20026;-68
2022/07/30 01:17:56;;;;;;;9.40;5.18;;;19.70;74.30;;;;;;5013434;28;20017;-68
2022/07/30 01:20:27;;;;;;;9.10;5.10;;;19.70;74.50;;;;;;5015085;28;20029;-68
2022/07/30 01:23:14;;;;;;;8.45;4.78;;;19.70;74.60;;;;;;5030021;28;20026;-68
2022/07/30 01:25:49;;;;;;;10.65;5.38;;;19.70;74.60;;;;;;5015827;28;20403;-67
2022/07/30 01:28:19;;;;;;;11.48;5.60;;;19.70;74.70;;;;;;5003386;28;20426;-67
2022/07/30 01:30:46;;;;;;;10.77;5.70;;;19.60;74.60;;;;;;5020130;28;20080;-67
2022/07/30 01:33:15;;;;;;;10.40;5.57;;;19.60;74.60;;;;;;5033768;28;20029;-67
2022/07/30 01:35:45;;;;;;;10.73;5.47;;;19.60;74.70;;;;;;5020007;28;20018;-67
2022/07/30 01:38:12;;;;;;;10.88;6.07;;;19.60;74.70;;;;;;5030388;28;20184;-68
2022/07/30 01:40:39;;;;;;;8.98;5.82;;;19.60;74.80;;;;;;5029249;28;20367;-68
2022/07/30 01:43:07;;;;;;;9.10;5.47;;;19.60;74.80;;;;;;5017611;28;20022;-68
2022/07/30 01:45:34;;;;;;;9.80;6.47;;;19.70;74.80;;;;;;5030700;28;20034;-68
2022/07/30 01:48:02;;;;;;;11.95;6.75;;;19.70;74.80;;;;;;5026458;28;20426;-68
2022/07/30 01:50:29;;;;;;;13.55;7.65;;;19.60;74.70;;;;;;5031569;28;20045;-68
2022/07/30 01:52:57;;;;;;;12.23;7.22;;;19.60;74.80;;;;;;5014850;28;20032;-68
2022/07/30 01:55:30;;;;;;;8.85;6.05;;;19.60;74.90;;;;;;5012164;28;20018;-68
2022/07/30 01:57:57;;;;;;;11.65;6.30;;;19.50;75.10;;;;;;5022089;28;20029;-68
2022/07/30 02:00:29;;;;;;;9.88;6.75;;;19.50;75.00;;;;;;5048492;28;20469;-68
2022/07/30 02:02:56;;;;;;;11.63;6.97;;;19.50;75.10;;;;;;5010386;28;20037;-68
2022/07/30 02:05:22;;;;;;;9.98;6.43;;;19.50;75.10;;;;;;5034349;28;20037;-68
2022/07/30 02:08:01;;;;;;;12.18;7.05;;;19.50;75.20;;;;;;5014793;28;20121;-68
2022/07/30 02:10:42;;;;;;;10.60;7.13;;;19.50;75.30;;;;;;5010860;28;20041;-68
2022/07/30 02:13:24;;;;;;;13.20;6.75;;;19.50;75.30;;;;;;5023573;28;20172;-68
2022/07/30 02:15:58;;;;;;;13.18;7.05;;;19.50;75.30;;;;;;5004937;28;20021;-68
2022/07/30 02:18:47;;;;;;;11.60;6.72;;;19.50;75.20;;;;;;5018802;28;20018;-68
2022/07/30 02:21:16;;;;;;;10.48;5.88;;;19.50;75.30;;;;;;5012228;28;20034;-68
2022/07/30 02:23:45;;;;;;;10.07;6.75;;;19.50;75.20;;;;;;5009659;28;20029;-68
2022/07/30 02:26:20;;;;;;;9.95;7.28;;;19.50;75.30;;;;;;5019191;28;20459;-68
2022/07/30 02:28:50;;;;;;;11.45;6.78;;;19.50;75.30;;;;;;5014320;28;20049;-68
2022/07/30 02:31:19;;;;;;;11.35;7.07;;;19.50;75.30;;;;;;5014367;28;20030;-68
2022/07/30 02:33:48;;;;;;;13.93;7.22;;;19.50;75.40;;;;;;5019611;28;20179;-68
2022/07/30 02:36:15;;;;;;;11.63;7.38;;;19.50;75.40;;;;;;5015748;28;20116;-68
2022/07/30 02:38:43;;;;;;;11.85;7.65;;;19.40;76.00;;;;;;5007828;28;20032;-67
2022/07/30 02:41:10;;;;;;;12.15;7.70;;;19.40;75.50;;;;;;5020450;28;20040;-68
2022/07/30 02:43:39;;;;;;;12.23;7.57;;;19.40;75.70;;;;;;5023119;28;20026;-68
2022/07/30 02:46:08;;;;;;;11.13;7.28;;;19.30;75.80;;;;;;5012675;28;20034;-68
2022/07/30 02:49:05;;;;;;;10.50;6.30;;;19.30;75.90;;;;;;5008980;28;20032;-68
2022/07/30 02:51:33;;;;;;;10.60;6.68;;;19.20;76.00;;;;;;5010069;28;20080;-68
2022/07/30 02:54:02;;;;;;;9.68;6.38;;;19.20;76.10;;;;;;5022494;28;20025;-68
2022/07/30 02:56:30;;;;;;;10.15;7.20;;;19.20;76.20;;;;;;5025986;28;20029;-68
2022/07/30 02:58:57;;;;;;;13.13;6.95;;;19.20;76.30;;;;;;5020610;28;20079;-68
2022/07/30 03:01:24;;;;;;;11.32;7.50;;;19.20;76.20;;;;;;5021426;28;20037;-68
2022/07/30 03:03:52;;;;;;;12.20;7.38;;;19.20;76.20;;;;;;5016207;28;20025;-68
2022/07/30 03:06:19;;;;;;;9.75;6.63;;;19.20;76.30;;;;;;5033179;28;20447;-68
2022/07/30 03:08:45;;;;;;;10.68;6.50;;;19.30;76.30;;;;;;5006447;28;20104;-68
2022/07/30 03:11:12;;;;;;;11.52;6.88;;;19.30;76.30;;;;;;5005785;28;20511;-68
2022/07/30 03:13:39;;;;;;;10.55;7.15;;;19.30;76.40;;;;;;4997160;28;20053;-68
2022/07/30 03:16:09;;;;;;;10.55;6.97;;;19.30;76.40;;;;;;5013650;28;20053;-68
2022/07/30 03:18:37;;;;;;;10.98;7.68;;;19.20;76.50;;;;;;5031454;28;20064;-68
2022/07/30 03:21:07;;;;;;;11.48;7.30;;;19.20;76.50;;;;;;5010734;28;20354;-68
2022/07/30 03:23:36;;;;;;;11.88;7.30;;;19.20;76.60;;;;;;5012759;28;20017;-69
2022/07/30 03:26:04;;;;;;;10.98;7.20;;;19.20;76.60;;;;;;5025871;28;20091;-68
2022/07/30 03:28:31;;;;;;;12.20;7.72;;;19.20;76.60;;;;;;5018887;28;20026;-68
2022/07/30 03:30:58;;;;;;;11.90;7.55;;;19.20;76.60;;;;;;5034899;28;20112;-68
2022/07/30 03:33:25;;;;;;;11.18;7.45;;;19.20;76.60;;;;;;5023221;28;20053;-68
2022/07/30 03:35:52;;;;;;;11.60;8.25;;;19.20;76.60;;;;;;5018446;28;20363;-68
2022/07/30 03:38:20;;;;;;;11.82;7.78;;;19.20;77.20;;;;;;5010135;28;20038;-67
2022/07/30 03:40:46;;;;;;;10.68;7.07;;;19.20;76.60;;;;;;5006754;28;20113;-67
2022/07/30 03:43:13;;;;;;;10.98;7.38;;;19.10;76.60;;;;;;5011467;28;20065;-67
2022/07/30 03:45:41;;;;;;;11.00;7.75;;;19.10;76.70;;;;;;5031623;28;20025;-67
2022/07/30 03:48:09;;;;;;;10.85;6.55;;;19.10;76.70;;;;;;5020619;28;20387;-67
2022/07/30 03:50:39;;;;;;;9.90;6.88;;;19.10;76.80;;;;;;5015842;28;20095;-66
2022/07/30 03:53:07;;;;;;;11.32;7.68;;;19.10;76.90;;;;;;5014231;28;20092;-67
2022/07/30 03:55:42;;;;;;;9.65;6.43;;;19.10;76.90;;;;;;5025064;28;20409;-67
2022/07/30 03:58:27;;;;;;;10.30;7.35;;;19.10;76.80;;;;;;5021855;28;20052;-67
2022/07/30 04:00:52;;;;;;;13.07;6.97;;;19.00;76.70;;;;;;5008832;28;20124;-68
2022/07/30 04:03:26;;;;;;;10.43;7.18;;;19.10;76.70;;;;;;5030608;28;20510;-67
2022/07/30 04:05:54;;;;;;;9.45;6.88;;;19.00;76.70;;;;;;5029800;28;20036;-67
2022/07/30 04:08:19;;;;;;;11.93;7.53;;;19.10;76.70;;;;;;5014775;28;20042;-67
2022/07/30 04:10:46;;;;;;;10.65;7.10;;;19.00;76.70;;;;;;4996688;28;20046;-67
2022/07/30 04:13:30;;;;;;;10.38;7.40;;;19.00;76.60;;;;;;5011579;28;20455;-67
2022/07/30 04:16:24;;;;;;;11.43;6.95;;;19.00;76.50;;;;;;5007867;28;20026;-67
2022/07/30 04:18:56;;;;;;;10.50;6.90;;;19.10;76.50;;;;;;5009682;28;20084;-67
2022/07/30 04:21:25;;;;;;;10.23;5.88;;;19.10;76.40;;;;;;5004350;28;20453;-67
2022/07/30 04:23:53;;;;;;;10.23;6.05;;;19.10;76.30;;;;;;5007046;28;20362;-67
2022/07/30 04:26:20;;;;;;;12.32;6.60;;;19.10;76.30;;;;;;5005342;28;20091;-67
2022/07/30 04:28:47;;;;;;;12.23;6.97;;;19.10;76.30;;;;;;5012428;28;20029;-67
2022/07/30 04:31:13;;;;;;;10.25;6.63;;;19.10;76.20;;;;;;5027817;28;20057;-67
2022/07/30 04:33:40;;;;;;;11.23;7.05;;;19.10;76.20;;;;;;5026911;28;20022;-66
2022/07/30 04:36:20;;;;;;;10.43;6.38;;;19.10;76.20;;;;;;5002155;28;20076;-66
2022/07/30 04:38:46;;;;;;;10.40;7.38;;;19.10;76.30;;;;;;5011394;28;20100;-65
2022/07/30 04:41:12;;;;;;;9.80;6.57;;;19.10;76.30;;;;;;5014810;28;20030;-67
2022/07/30 04:43:57;;;;;;;10.05;6.68;;;19.10;76.30;;;;;;5007406;28;20044;-66
2022/07/30 04:46:23;;;;;;;11.13;5.75;;;19.10;76.20;;;;;;5006961;28;20370;-66
2022/07/30 04:48:49;;;;;;;10.60;6.25;;;19.10;76.20;;;;;;5016860;28;20122;-66
2022/07/30 04:51:23;;;;;;;10.60;6.15;;;19.10;76.20;;;;;;5009710;28;20031;-66
2022/07/30 04:53:51;;;;;;;10.82;6.72;;;19.20;76.20;;;;;;5034467;28;20026;-66
2022/07/30 04:56:20;;;;;;;10.05;6.78;;;19.20;76.20;;;;;;5026001;28;20030;-66
2022/07/30 04:58:47;;;;;;;11.07;6.22;;;19.20;76.20;;;;;;5017983;28;20030;-65
2022/07/30 05:01:21;;;;;;;10.32;6.72;;;19.20;76.20;;;;;;5026184;28;20025;-65
2022/07/30 05:03:48;;;;;;;10.27;6.88;;;19.20;76.20;;;;;;5018205;28;20487;-65
2022/07/30 05:06:15;;;;;;;10.27;6.38;;;19.20;76.20;;;;;;5015639;28;20390;-65
2022/07/30 05:08:41;;;;;;;11.85;6.50;;;19.20;76.20;;;;;;5012818;28;20108;-65
2022/07/30 05:11:13;;;;;;;9.98;6.28;;;19.20;76.10;;;;;;5014606;28;20038;-65
2022/07/30 05:13:43;;;;;;;10.63;5.95;;;19.20;76.20;;;;;;5028340;28;20167;-65
2022/07/30 05:16:11;;;;;;;10.25;6.38;;;19.30;76.30;;;;;;5020487;28;20030;-65
2022/07/30 05:18:37;;;;;;;11.70;5.70;;;19.30;76.20;;;;;;5028506;28;20050;-65
2022/07/30 05:21:03;;;;;;;11.68;7.10;;;19.30;76.20;;;;;;5010510;28;20018;-65
2022/07/30 05:23:40;;;;;;;10.68;5.60;;;19.30;76.10;;;;;;5016188;28;20021;-67
2022/07/30 05:26:21;;;;;;;9.75;5.90;;;19.30;76.10;;;;;;5010528;28;20040;-69
2022/07/30 05:28:48;;;;;;;10.85;5.95;;;19.40;76.10;;;;;;5032336;28;20033;-65
2022/07/30 05:31:17;;;;;;;10.43;5.57;;;19.50;76.00;;;;;;5015982;28;20352;-65
2022/07/30 05:33:50;;;;;;;11.52;5.47;;;19.50;75.90;;;;;;5017100;28;20048;-66
2022/07/30 05:36:18;;;;;;;8.45;5.20;;;19.50;75.70;;;;;;5012832;28;20367;-66
2022/07/30 05:38:44;;;;;;;10.02;5.63;;;19.60;75.70;;;;;;5035547;28;20028;-66
2022/07/30 05:41:22;;;;;;;10.18;5.13;;;19.60;75.40;;;;;;5017326;28;20351;-66
2022/07/30 05:44:02;;;;;;;9.45;4.82;;;19.70;75.20;;;;;;5003372;28;20032;-66
2022/07/30 05:46:29;;;;;;;9.20;5.28;;;19.70;75.00;;;;;;5029545;28;20474;-66
2022/07/30 05:48:55;;;;;;;9.95;5.10;;;19.80;74.70;;;;;;5030737;28;20026;-66
2022/07/30 05:51:21;;;;;;;11.63;5.32;;;19.90;74.50;;;;;;5017443;28;20359;-66
2022/07/30 05:53:47;;;;;;;8.45;5.38;;;19.90;74.30;;;;;;5021188;28;20025;-66
2022/07/30 05:56:31;;;;;;;9.85;4.68;;;20.00;74.10;;;;;;5036733;28;20033;-66
2022/07/30 05:59:06;;;;;;;8.45;4.88;;;20.10;73.90;;;;;;5008736;28;20021;-66
2022/07/30 06:02:02;;;;;;;9.95;4.95;;;20.10;73.70;;;;;;4999545;28;20045;-66
2022/07/30 06:04:37;;;;;;;9.02;5.47;;;20.20;73.60;;;;;;4999928;28;20046;-66
2022/07/30 06:07:04;;;;;;;7.85;4.72;;;20.20;73.40;;;;;;4992843;28;20356;-66
2022/07/30 06:09:31;;;;;;;10.52;5.25;;;20.30;73.20;;;;;;4978881;28;20049;-66
2022/07/30 06:11:57;;;;;;;8.65;4.70;;;20.30;73.00;;;;;;4976992;28;20050;-66
2022/07/30 06:14:23;;;;;;;8.70;4.97;;;20.40;72.80;;;;;;4979986;28;20030;-66
2022/07/30 06:16:49;;;;;;;9.52;5.10;;;20.50;72.50;;;;;;5014762;28;20037;-66
2022/07/30 06:19:15;;;;;;;9.68;5.00;;;20.50;72.30;;;;;;4997922;28;20068;-66
2022/07/30 06:21:43;;;;;;;10.60;5.03;;;20.60;72.10;;;;;;4983434;28;20117;-66
2022/07/30 06:24:11;;;;;;;8.88;4.53;;;20.60;71.80;;;;;;4987417;28;20052;-66
2022/07/30 06:26:57;;;;;;;10.23;4.53;;;20.70;72.20;;;;;;4993703;28;20135;-67
2022/07/30 06:29:24;;;;;;;7.53;4.28;;;20.90;71.20;;;;;;4988360;28;20514;-66
2022/07/30 06:31:49;;;;;;;8.73;4.40;;;21.00;70.90;;;;;;4979085;28;20134;-66
2022/07/30 06:34:15;;;;;;;8.48;4.18;;;21.10;70.50;;;;;;4992795;28;20050;-67
2022/07/30 06:36:41;;;;;;;8.63;4.38;;;21.20;70.20;;;;;;5000375;28;20077;-67
2022/07/30 06:39:14;;;;;;;6.80;4.35;;;21.30;69.90;;;;;;5027721;28;20034;-67
2022/07/30 06:41:49;;;;;;;9.82;4.03;;;21.40;69.60;;;;;;5012458;28;20041;-66
2022/07/30 06:44:15;;;;;;;7.40;3.70;;;21.50;69.20;;;;;;5030143;28;20036;-66
2022/07/30 06:47:11;;;;;;;10.07;3.80;;;21.60;69.00;;;;;;5028879;28;20173;-68
2022/07/30 06:49:37;;;;;;;9.18;4.25;;;21.80;68.30;;;;;;5043080;28;20140;-66
2022/07/30 06:52:05;;;;;;;7.50;3.70;;;22.00;67.60;;;;;;5014177;28;20033;-65
2022/07/30 06:54:32;;;;;;;10.05;3.85;;;22.10;67.10;;;;;;5034194;28;20466;-66
2022/07/30 06:57:19;;;;;;;9.38;4.00;;;22.30;66.70;;;;;;5021400;28;20038;-66
2022/07/30 06:59:44;;;;;;;9.65;3.25;;;22.40;66.20;;;;;;5027280;28;20029;-66
2022/07/30 07:02:25;;;;;;;7.85;3.33;;;22.50;65.70;;;;;;5014190;28;20034;-66
2022/07/30 07:05:09;;;;;;;6.53;3.28;;;22.70;65.40;;;;;;5024662;28;20037;-66
2022/07/30 07:07:36;;;;;;;6.55;3.08;;;22.80;64.80;;;;;;5014339;28;20384;-66
2022/07/30 07:10:03;;;;;;;6.45;3.30;;;23.00;64.30;;;;;;5024033;28;20049;-66
2022/07/30 07:12:37;;;;;;;9.00;3.45;;;23.20;63.60;;;;;;5021578;28;20057;-66
2022/07/30 07:15:05;;;;;;;8.00;3.50;;;23.30;63.20;;;;;;5024678;28;20022;-66
2022/07/30 07:17:31;;;;;;;6.97;3.20;;;23.30;62.80;;;;;;5022879;28;20427;-66
2022/07/30 07:19:57;;;;;;;7.50;2.92;;;23.40;62.50;;;;;;5031102;28;20040;-66
2022/07/30 07:22:23;;;;;;;7.45;2.80;;;23.50;62.40;;;;;;5008965;28;20109;-65
2022/07/30 07:24:49;;;;;;;7.85;3.13;;;23.60;62.00;;;;;;5015738;28;20112;-66
2022/07/30 07:27:21;;;;;;;7.00;3.05;;;23.70;61.40;;;;;;5022494;28;20128;-67
2022/07/30 07:29:50;;;;;;;7.53;3.15;;;23.80;60.70;;;;;;5026725;28;20129;-67
2022/07/30 07:32:15;;;;;;;7.28;2.70;;;24.00;60.30;;;;;;4994271;28;20507;-68
2022/07/30 07:34:41;;;;;;;7.85;2.70;;;24.10;59.90;;;;;;5013083;28;20401;-67
2022/07/30 07:37:07;;;;;;;6.40;2.70;;;24.20;59.50;;;;;;5012590;28;20145;-66
2022/07/30 07:39:33;;;;;;;7.70;2.78;;;24.30;59.10;;;;;;5022598;28;20433;-66
2022/07/30 07:41:59;;;;;;;7.30;2.83;;;24.50;58.80;;;;;;5020183;28;20025;-66
2022/07/30 07:44:27;;;;;;;6.47;2.78;;;24.40;58.30;;;;;;5024853;28;20457;-66
2022/07/30 07:46:53;;;;;;;6.13;2.80;;;24.20;58.50;;;;;;5011234;28;20025;-66
2022/07/30 07:49:19;;;;;;;5.20;2.72;;;24.10;58.70;;;;;;5013560;28;20447;-66
2022/07/30 07:51:49;;;;;;;6.13;2.67;;;24.10;58.40;;;;;;5026936;28;20033;-66
2022/07/30 07:54:17;;;;;;;7.07;3.05;;;24.10;58.40;;;;;;5008505;28;20028;-67
2022/07/30 07:56:43;;;;;;;9.70;3.08;;;24.30;58.30;;;;;;5022366;28;20026;-66
2022/07/30 07:59:11;;;;;;;8.05;3.00;;;24.50;57.90;;;;;;5026871;28;20373;-66
2022/07/30 08:01:36;;;;;;;9.20;3.03;;;24.60;57.30;;;;;;5009418;28;20025;-66
2022/07/30 08:04:20;;;;;;;7.93;2.72;;;24.70;56.90;;;;;;5028856;28;20052;-66
2022/07/30 08:07:15;;;;;;;6.68;2.58;;;24.80;56.50;;;;;;5021206;28;20099;-67
2022/07/30 08:10:16;;;;;;;6.00;2.30;;;24.90;56.30;;;;;;5023175;28;20061;-66
2022/07/30 08:13:04;;;;;;;7.03;2.40;;;25.00;55.90;;;;;;5033497;28;20188;-67
2022/07/30 08:16:02;;;;;;;7.43;2.70;;;25.20;55.50;;;;;;5034113;28;20405;-67
2022/07/30 08:18:46;;;;;;;5.68;2.33;;;25.30;55.00;;;;;;5036602;28;20094;-67
2022/07/30 08:21:26;;;;;;;8.35;2.42;;;25.50;54.40;;;;;;5019035;28;20021;-67
2022/07/30 08:23:51;;;;;;;4.90;2.25;;;25.60;54.50;;;;;;5036102;28;20030;-67
2022/07/30 08:26:17;;;;;;;5.75;2.45;;;25.60;53.50;;;;;;5017285;28;20123;-67
2022/07/30 08:28:44;;;;;;;7.20;2.53;;;25.70;53.00;;;;;;5036388;28;20073;-67
2022/07/30 08:31:10;;;;;;;4.75;1.88;;;25.70;52.70;;;;;;5032956;28;20034;-67
2022/07/30 08:33:36;;;;;;;5.53;2.22;;;25.70;52.40;;;;;;5035506;28;20469;-67
2022/07/30 08:36:02;;;;;;;5.32;2.17;;;25.80;52.20;;;;;;5014094;28;20076;-67
2022/07/30 08:38:28;;;;;;;6.28;2.30;;;26.00;52.10;;;;;;5025498;28;20430;-69
2022/07/30 08:40:55;;;;;;;7.00;2.47;;;26.10;51.70;;;;;;5027843;28;20025;-68
2022/07/30 08:43:23;;;;;;;5.35;2.33;;;26.20;51.30;;;;;;5033688;28;20373;-68
2022/07/30 08:45:51;;;;;;;6.47;2.33;;;26.20;51.10;;;;;;5013836;28;20029;-68
2022/07/30 08:48:43;;;;;;;5.75;2.42;;;26.30;50.90;;;;;;5021397;28;20417;-68
2022/07/30 08:51:10;;;;;;;5.15;2.45;;;26.40;50.90;;;;;;5017429;28;20033;-68
2022/07/30 08:53:42;;;;;;;6.90;2.55;;;26.40;50.40;;;;;;5031035;28;20050;-69
2022/07/30 08:56:08;;;;;;;5.80;2.10;;;26.50;49.80;;;;;;5015235;28;20068;-68
2022/07/30 08:58:35;;;;;;;5.90;2.40;;;26.50;49.30;;;;;;5032742;28;20025;-70
2022/07/30 09:01:02;;;;;;;6.00;2.20;;;26.50;48.70;;;;;;5032072;28;20017;-68
2022/07/30 09:03:28;;;;;;;4.65;1.90;;;26.50;48.30;;;;;;5037033;28;20036;-69
2022/07/30 09:05:59;;;;;;;7.15;2.22;;;26.60;48.20;;;;;;5013717;28;20084;-68
2022/07/30 09:08:24;;;;;;;6.75;2.40;;;26.60;47.90;;;;;;5020077;28;20033;-68
2022/07/30 09:10:50;;;;;;;4.45;2.00;;;26.70;47.60;;;;;;5017366;28;20050;-68
2022/07/30 09:13:31;;;;;;;5.85;2.00;;;26.70;47.50;;;;;;5013088;28;20026;-68
2022/07/30 09:15:59;;;;;;;5.55;1.90;;;26.80;47.50;;;;;;5009028;28;20026;-68
2022/07/30 09:18:28;;;;;;;6.25;2.10;;;27.00;47.90;;;;;;5021546;28;20104;-68
2022/07/30 09:20:55;;;;;;;6.20;2.03;;;27.10;47.50;;;;;;5013392;28;20025;-68
2022/07/30 09:23:20;;;;;;;6.43;2.22;;;27.30;47.20;;;;;;5025650;28;20363;-69
2022/07/30 09:26:25;;;;;;;8.35;2.30;;;27.40;47.00;;;;;;5033444;28;20100;-67
2022/07/30 09:29:13;;;;;;;6.13;2.00;;;27.40;46.90;;;;;;5005211;28;20034;-67
2022/07/30 09:32:08;;;;;;;6.05;1.88;;;27.50;46.70;;;;;;5013614;28;20132;-67
2022/07/30 09:35:13;;;;;;;6.25;1.98;;;27.60;46.70;;;;;;5021173;28;20504;-67
2022/07/30 09:37:59;;;;;;;5.43;2.35;;;27.70;46.50;;;;;;5034673;28;20060;-67
2022/07/30 09:41:00;;;;;;;4.18;1.70;;;27.80;46.00;;;;;;4976305;28;20047;-67
2022/07/30 09:43:55;;;;;;;4.70;1.75;;;27.70;45.70;;;;;;4962489;28;20174;-67
2022/07/30 09:46:42;;;;;;;4.97;1.77;;;27.80;45.50;;;;;;4967674;28;20035;-67
2022/07/30 09:49:16;;;;;;;4.10;1.75;;;27.90;45.00;;;;;;4966038;28;20138;-67
2022/07/30 09:51:41;;;;;;;5.00;1.98;;;27.90;44.50;;;;;;4966498;28;20133;-67
2022/07/30 09:54:07;;;;;;;5.97;1.98;;;27.90;44.70;;;;;;4976117;28;20500;-67
2022/07/30 09:56:33;;;;;;;5.50;2.33;;;27.90;44.90;;;;;;4951904;29;20151;-67
2022/07/30 09:58:59;;;;;;;6.53;1.85;;;28.10;45.00;;;;;;4944842;28;20093;-67
2022/07/30 10:01:25;;;;;;;5.55;1.90;;;28.10;44.80;;;;;;4968954;28;20039;-68
2022/07/30 10:04:32;;;;;;;3.10;1.60;;;28.10;44.60;;;;;;4956347;28;20408;-67
2022/07/30 10:07:20;;;;;;;4.35;1.67;;;28.20;44.60;;;;;;4956632;28;20368;-67
2022/07/30 10:09:47;;;;;;;4.40;1.70;;;28.20;44.00;;;;;;4949230;28;20114;-67
2022/07/30 10:12:15;;;;;;;3.53;1.52;;;28.20;44.00;;;;;;4955885;28;20456;-67
2022/07/30 10:14:46;;;;;;;6.30;1.70;;;28.20;44.00;;;;;;4992227;28;20030;-67
2022/07/30 10:17:14;;;;;;;4.43;1.60;;;28.30;43.90;;;;;;5025093;28;20052;-67
2022/07/30 10:19:43;;;;;;;4.50;1.63;;;28.30;43.90;;;;;;5031040;28;20025;-67
2022/07/30 10:22:44;;;;;;;;;;;28.40;43.70;;;;;;5019801;28;20041;-67
2022/07/30 10:25:16;;;;;;;4.22;1.55;;;28.40;44.00;;;;;;5035143;28;20019;-68
2022/07/30 10:28:02;;;;;;;3.50;1.60;;;28.40;43.60;;;;;;5009338;28;20077;-67
2022/07/30 10:30:31;;;;;;;4.00;1.42;;;28.50;42.90;;;;;;5027291;28;20029;-67
2022/07/30 10:32:58;;;;;;;4.13;1.63;;;28.50;42.70;;;;;;5027393;28;20030;-67
2022/07/30 10:35:24;;;;;;;5.55;1.88;;;28.50;43.10;;;;;;5035759;28;20355;-68
2022/07/30 10:37:51;;;;;;;4.70;1.70;;;28.60;43.30;;;;;;5016709;28;20042;-68
2022/07/30 10:40:17;;;;;;;3.55;1.63;;;28.80;43.40;;;;;;4986877;28;20026;-68
2022/07/30 10:43:03;;;;;;;3.95;1.55;;;28.90;42.50;;;;;;5012435;28;20130;-68
2022/07/30 10:45:43;;;;;;;3.55;1.50;;;28.90;41.60;;;;;;5011040;28;20045;-68
2022/07/30 10:48:09;;;;;;;4.57;1.75;;;28.90;41.50;;;;;;5013737;28;20054;-68
2022/07/30 10:50:50;;;;;;;4.90;1.70;;;29.00;41.30;;;;;;5016859;28;20033;-67
2022/07/30 10:53:51;;;;;;;4.88;1.60;;;28.90;41.20;;;;;;5009877;28;20029;-68
2022/07/30 10:56:19;;;;;;;5.25;1.70;;;28.90;41.10;;;;;;4983697;28;20042;-68
2022/07/30 10:59:10;;;;;;;2.97;1.40;;;28.80;41.00;;;;;;4982168;28;20046;-68
2022/07/30 11:01:48;;;;;;;4.13;1.40;;;28.80;40.70;;;;;;4977068;28;20058;-67
2022/07/30 11:04:23;;;;;;;3.38;1.20;;;28.90;40.40;;;;;;4996877;28;20046;-68
2022/07/30 11:06:50;;;;;;;3.33;1.40;;;29.00;40.20;;;;;;5006982;28;20100;-68
2022/07/30 11:09:37;;;;;;;4.15;1.60;;;28.90;40.00;;;;;;4996018;28;20065;-68
2022/07/30 11:12:07;;;;;;;3.45;1.23;;;28.90;39.70;;;;;;4988447;28;20061;-68
2022/07/30 11:14:45;;;;;;;4.10;1.60;;;28.90;39.90;;;;;;4992135;28;20032;-68
2022/07/30 11:17:16;;;;;;;2.92;1.20;;;28.80;39.90;;;;;;4976164;28;20325;-68
2022/07/30 11:20:01;;;;;;;3.28;1.35;;;28.70;39.90;;;;;;4993379;28;20034;-68
2022/07/30 11:22:43;;;;;;;3.38;1.38;;;28.80;40.10;;;;;;4991918;28;20045;-68
2022/07/30 11:25:31;;;;;;;3.92;1.65;;;28.80;40.50;;;;;;4962660;28;20030;-68
2022/07/30 11:27:59;;;;;;;5.93;1.80;;;28.70;40.50;;;;;;4983255;28;20031;-68
2022/07/30 11:30:28;;;;;;;4.50;1.92;;;28.60;40.80;;;;;;4994762;28;20149;-68
2022/07/30 11:33:03;;;;;;;4.47;1.67;;;28.60;40.70;;;;;;5013614;28;20040;-68
2022/07/30 11:35:33;;;;;;;2.92;1.35;;;28.60;40.60;;;;;;5007389;28;20026;-68
2022/07/30 11:38:18;;;;;;;3.72;1.60;;;28.50;40.90;;;;;;5031165;28;20033;-68
2022/07/30 11:40:50;;;;;;;5.28;1.70;;;28.40;41.00;;;;;;5027392;28;20037;-68
2022/07/30 11:43:33;;;;;;;4.15;1.80;;;28.30;41.20;;;;;;5031545;28;20040;-68
2022/07/30 11:46:13;;;;;;;2.47;1.33;;;28.30;41.30;;;;;;5018046;28;20034;-68
2022/07/30 11:48:55;;;;;;;3.75;1.63;;;28.20;41.50;;;;;;5003159;28;20061;-68
2022/07/30 11:51:21;;;;;;;4.50;1.60;;;28.10;41.70;;;;;;5004770;28;20037;-68
2022/07/30 11:54:04;;;;;;;4.85;1.50;;;28.00;42.10;;;;;;5017284;28;20022;-68
2022/07/30 11:56:30;;;;;;;5.22;1.77;;;28.00;42.10;;;;;;5003261;28;20062;-68
2022/07/30 11:59:06;;;;;;;3.60;1.50;;;28.00;42.30;;;;;;5004897;28;20037;-68
2022/07/30 12:01:35;;;;;;;5.78;1.73;;;28.00;42.20;;;;;;5006307;28;20049;-68
2022/07/30 12:04:04;;;;;;;3.47;1.60;;;28.00;42.40;;;;;;5002111;28;20054;-68
2022/07/30 12:06:31;;;;;;;4.43;1.63;;;28.00;42.40;;;;;;5012240;28;20455;-68
2022/07/30 12:08:57;;;;;;;5.85;1.48;;;28.00;42.40;;;;;;5011794;28;20088;-68
2022/07/30 12:11:24;;;;;;;3.90;1.40;;;28.00;42.60;;;;;;4995284;28;20046;-67
2022/07/30 12:13:58;;;;;;;4.97;1.83;;;28.10;42.70;;;;;;5007476;28;20548;-68
2022/07/30 12:16:25;;;;;;;4.28;1.65;;;28.20;42.80;;;;;;5004983;28;20359;-68
2022/07/30 12:18:51;;;;;;;4.20;1.60;;;28.20;43.10;;;;;;5007510;28;20022;-68
2022/07/30 12:21:18;;;;;;;5.43;2.05;;;28.30;43.10;;;;;;4998519;28;20030;-68
2022/07/30 12:23:57;;;;;;;5.45;2.10;;;28.40;43.00;;;;;;5009176;28;20112;-68
2022/07/30 12:26:26;;;;;;;3.30;1.67;;;28.40;42.80;;;;;;5010966;28;20387;-68
2022/07/30 12:28:53;;;;;;;4.85;2.08;;;28.40;43.00;;;;;;5010849;28;20026;-68
2022/07/30 12:31:22;;;;;;;7.93;1.90;;;28.30;42.90;;;;;;5008671;28;20034;-68
2022/07/30 12:33:48;;;;;;;5.40;2.00;;;28.30;43.20;;;;;;5027098;28;20121;-68
2022/07/30 12:36:31;;;;;;;4.18;1.75;;;28.20;43.20;;;;;;5016923;28;20057;-68
2022/07/30 12:38:58;;;;;;;4.45;1.95;;;28.20;43.20;;;;;;5021470;28;20064;-67
2022/07/30 12:41:40;;;;;;;5.03;1.63;;;28.10;43.30;;;;;;5034203;28;20087;-68
2022/07/30 12:44:06;;;;;;;6.22;2.10;;;28.10;43.40;;;;;;5034648;28;20033;-67
2022/07/30 12:46:42;;;;;;;3.70;1.75;;;28.00;43.40;;;;;;5033296;28;20102;-68
2022/07/30 12:49:08;;;;;;;6.05;1.92;;;27.90;43.50;;;;;;5007306;28;20163;-68
2022/07/30 12:51:50;;;;;;;5.95;1.70;;;27.90;43.70;;;;;;5000276;28;20104;-68
2022/07/30 12:54:18;;;;;;;5.40;1.83;;;27.80;43.90;;;;;;5006810;28;20363;-68
2022/07/30 12:57:01;;;;;;;8.80;1.95;;;27.70;44.00;;;;;;5011323;28;20069;-68
2022/07/30 12:59:28;;;;;;;4.35;1.95;;;27.70;43.90;;;;;;5011917;28;20069;-68
2022/07/30 13:01:56;;;;;;;4.47;1.60;;;27.60;43.90;;;;;;5014678;28;20022;-68
2022/07/30 13:04:22;;;;;;;4.25;1.92;;;27.60;43.90;;;;;;5015906;28;20037;-68